sensor_id;sensor_type;location;lat;lon;timestamp;P1;durP1;ratioP1;P2;durP2;ratioP2
23310;SDS011;11828;51.508;18.118;2023-03-16T00:02:15;274.40;;;88.80;;
23310;SDS011;11828;51.508;18.118;2023-03-16T00:04:42;270.88;;;90.80;;
23310;SDS011;11828;51.508;18.118;2023-03-16T00:07:12;296.30;;;97.10;;
23310;SDS011;11828;51.508;18.118;2023-03-16T00:09:39;282.27;;;90.97;;
23310;SDS011;11828;51.508;18.118;2023-03-16T00:12:07;270.50;;;89.07;;
23310;SDS011;11828;51.508;18.118;2023-03-16T00:14:43;265.40;;;88.22;;
23310;SDS011;11828;51.508;18.118;2023-03-16T00:17:12;262.05;;;86.45;;
23310;SDS011;11828;51.508;18.118;2023-03-16T00:19:53;257.85;;;86.95;;
23310;SDS011;11828;51.508;18.118;2023-03-16T00:22:27;263.27;;;82.55;;
23310;SDS011;11828;51.508;18.118;2023-03-16T00:24:56;262.27;;;87.28;;
23310;SDS011;11828;51.508;18.118;2023-03-16T00:27:23;268.55;;;87.80;;
23310;SDS011;11828;51.508;18.118;2023-03-16T00:29:51;260.90;;;87.38;;
23310;SDS011;11828;51.508;18.118;2023-03-16T00:32:25;259.33;;;84.13;;
23310;SDS011;11828;51.508;18.118;2023-03-16T00:34:54;250.98;;;81.97;;
23310;SDS011;11828;51.508;18.118;2023-03-16T00:37:21;255.05;;;82.80;;
23310;SDS011;11828;51.508;18.118;2023-03-16T00:39:50;250.68;;;79.75;;
23310;SDS011;11828;51.508;18.118;2023-03-16T00:42:17;252.90;;;82.57;;
23310;SDS011;11828;51.508;18.118;2023-03-16T00:44:44;254.82;;;82.78;;
23310;SDS011;11828;51.508;18.118;2023-03-16T00:47:11;263.00;;;86.90;;
23310;SDS011;11828;51.508;18.118;2023-03-16T00:49:39;261.95;;;87.97;;
23310;SDS011;11828;51.508;18.118;2023-03-16T00:52:08;253.75;;;85.80;;
23310;SDS011;11828;51.508;18.118;2023-03-16T00:54:42;261.30;;;88.90;;
23310;SDS011;11828;51.508;18.118;2023-03-16T00:57:11;261.88;;;89.70;;
23310;SDS011;11828;51.508;18.118;2023-03-16T00:59:42;267.95;;;88.25;;
23310;SDS011;11828;51.508;18.118;2023-03-16T01:02:08;260.85;;;87.57;;
23310;SDS011;11828;51.508;18.118;2023-03-16T01:04:36;261.38;;;87.88;;
23310;SDS011;11828;51.508;18.118;2023-03-16T01:07:04;268.38;;;89.70;;
23310;SDS011;11828;51.508;18.118;2023-03-16T01:09:41;264.35;;;88.85;;
23310;SDS011;11828;51.508;18.118;2023-03-16T01:12:09;263.88;;;91.93;;
23310;SDS011;11828;51.508;18.118;2023-03-16T01:14:39;245.95;;;81.50;;
23310;SDS011;11828;51.508;18.118;2023-03-16T01:17:07;246.43;;;79.13;;
23310;SDS011;11828;51.508;18.118;2023-03-16T01:19:35;235.80;;;76.03;;
23310;SDS011;11828;51.508;18.118;2023-03-16T01:22:03;242.10;;;77.18;;
23310;SDS011;11828;51.508;18.118;2023-03-16T01:24:30;234.60;;;73.40;;
23310;SDS011;11828;51.508;18.118;2023-03-16T01:26:57;236.82;;;75.53;;
23310;SDS011;11828;51.508;18.118;2023-03-16T01:29:23;228.80;;;72.03;;
23310;SDS011;11828;51.508;18.118;2023-03-16T01:31:49;237.43;;;73.88;;
23310;SDS011;11828;51.508;18.118;2023-03-16T01:34:15;235.23;;;72.97;;
23310;SDS011;11828;51.508;18.118;2023-03-16T01:36:46;234.73;;;73.25;;
23310;SDS011;11828;51.508;18.118;2023-03-16T01:39:14;226.52;;;71.53;;
23310;SDS011;11828;51.508;18.118;2023-03-16T01:41:42;243.52;;;73.03;;
23310;SDS011;11828;51.508;18.118;2023-03-16T01:44:14;232.15;;;72.72;;
23310;SDS011;11828;51.508;18.118;2023-03-16T01:46:46;244.45;;;74.13;;
23310;SDS011;11828;51.508;18.118;2023-03-16T01:49:17;228.05;;;72.53;;
23310;SDS011;11828;51.508;18.118;2023-03-16T01:51:58;222.73;;;71.43;;
23310;SDS011;11828;51.508;18.118;2023-03-16T01:54:43;227.50;;;70.63;;
23310;SDS011;11828;51.508;18.118;2023-03-16T02:00:00;226.30;;;71.78;;
23310;SDS011;11828;51.508;18.118;2023-03-16T02:02:43;242.93;;;74.13;;
23310;SDS011;11828;51.508;18.118;2023-03-16T02:05:22;238.02;;;72.65;;
23310;SDS011;11828;51.508;18.118;2023-03-16T02:07:57;226.38;;;70.88;;
23310;SDS011;11828;51.508;18.118;2023-03-16T02:10:26;228.02;;;73.35;;
23310;SDS011;11828;51.508;18.118;2023-03-16T02:12:53;233.90;;;74.93;;
23310;SDS011;11828;51.508;18.118;2023-03-16T02:15:20;236.75;;;75.47;;
23310;SDS011;11828;51.508;18.118;2023-03-16T02:17:46;232.13;;;73.47;;
23310;SDS011;11828;51.508;18.118;2023-03-16T02:20:29;225.55;;;71.82;;
23310;SDS011;11828;51.508;18.118;2023-03-16T02:23:08;254.15;;;75.72;;
23310;SDS011;11828;51.508;18.118;2023-03-16T02:25:54;220.65;;;71.50;;
23310;SDS011;11828;51.508;18.118;2023-03-16T02:32:12;224.30;;;70.88;;
23310;SDS011;11828;51.508;18.118;2023-03-16T02:34:39;218.80;;;70.63;;
23310;SDS011;11828;51.508;18.118;2023-03-16T02:37:06;230.23;;;73.03;;
23310;SDS011;11828;51.508;18.118;2023-03-16T02:39:33;238.02;;;75.72;;
23310;SDS011;11828;51.508;18.118;2023-03-16T02:42:00;241.57;;;72.68;;
23310;SDS011;11828;51.508;18.118;2023-03-16T02:44:27;236.63;;;73.78;;
23310;SDS011;11828;51.508;18.118;2023-03-16T02:47:01;233.05;;;72.95;;
23310;SDS011;11828;51.508;18.118;2023-03-16T02:49:38;228.82;;;72.22;;
23310;SDS011;11828;51.508;18.118;2023-03-16T02:52:10;232.15;;;72.40;;
23310;SDS011;11828;51.508;18.118;2023-03-16T02:54:36;236.25;;;72.05;;
23310;SDS011;11828;51.508;18.118;2023-03-16T02:57:03;218.15;;;95.18;;
23310;SDS011;11828;51.508;18.118;2023-03-16T02:59:29;232.00;;;72.25;;
23310;SDS011;11828;51.508;18.118;2023-03-16T03:01:56;248.57;;;141.07;;
23310;SDS011;11828;51.508;18.118;2023-03-16T03:04:22;277.35;;;208.32;;
23310;SDS011;11828;51.508;18.118;2023-03-16T03:06:49;230.98;;;70.07;;
23310;SDS011;11828;51.508;18.118;2023-03-16T03:09:16;231.00;;;76.27;;
23310;SDS011;11828;51.508;18.118;2023-03-16T03:11:44;234.02;;;71.55;;
23310;SDS011;11828;51.508;18.118;2023-03-16T03:14:14;223.77;;;70.55;;
23310;SDS011;11828;51.508;18.118;2023-03-16T03:16:41;225.65;;;69.93;;
23310;SDS011;11828;51.508;18.118;2023-03-16T03:19:11;225.63;;;70.55;;
23310;SDS011;11828;51.508;18.118;2023-03-16T03:21:38;228.23;;;71.18;;
23310;SDS011;11828;51.508;18.118;2023-03-16T03:24:06;224.75;;;70.95;;
23310;SDS011;11828;51.508;18.118;2023-03-16T03:26:33;227.55;;;71.65;;
23310;SDS011;11828;51.508;18.118;2023-03-16T03:28:59;224.68;;;70.13;;
23310;SDS011;11828;51.508;18.118;2023-03-16T03:31:25;249.25;;;72.68;;
23310;SDS011;11828;51.508;18.118;2023-03-16T03:33:51;226.55;;;69.38;;
23310;SDS011;11828;51.508;18.118;2023-03-16T03:36:18;220.95;;;69.07;;
23310;SDS011;11828;51.508;18.118;2023-03-16T03:38:46;219.38;;;68.93;;
23310;SDS011;11828;51.508;18.118;2023-03-16T03:41:15;220.05;;;68.47;;
23310;SDS011;11828;51.508;18.118;2023-03-16T03:43:41;224.25;;;69.25;;
23310;SDS011;11828;51.508;18.118;2023-03-16T03:46:08;222.07;;;68.80;;
23310;SDS011;11828;51.508;18.118;2023-03-16T03:48:34;222.30;;;69.28;;
23310;SDS011;11828;51.508;18.118;2023-03-16T03:51:01;215.30;;;69.23;;
23310;SDS011;11828;51.508;18.118;2023-03-16T03:53:27;230.18;;;71.32;;
23310;SDS011;11828;51.508;18.118;2023-03-16T03:55:53;221.15;;;69.20;;
23310;SDS011;11828;51.508;18.118;2023-03-16T03:58:19;211.80;;;67.25;;
23310;SDS011;11828;51.508;18.118;2023-03-16T04:00:45;228.45;;;71.80;;
23310;SDS011;11828;51.508;18.118;2023-03-16T04:03:11;226.30;;;70.72;;
23310;SDS011;11828;51.508;18.118;2023-03-16T04:05:38;235.50;;;71.03;;
23310;SDS011;11828;51.508;18.118;2023-03-16T04:08:04;240.30;;;72.15;;
23310;SDS011;11828;51.508;18.118;2023-03-16T04:10:31;230.07;;;71.70;;
23310;SDS011;11828;51.508;18.118;2023-03-16T04:12:57;222.15;;;68.45;;
23310;SDS011;11828;51.508;18.118;2023-03-16T04:15:24;226.68;;;70.65;;
23310;SDS011;11828;51.508;18.118;2023-03-16T04:17:50;215.02;;;68.00;;
23310;SDS011;11828;51.508;18.118;2023-03-16T04:20:17;223.93;;;70.38;;
23310;SDS011;11828;51.508;18.118;2023-03-16T04:22:45;226.05;;;69.72;;
23310;SDS011;11828;51.508;18.118;2023-03-16T04:25:12;217.30;;;69.20;;
23310;SDS011;11828;51.508;18.118;2023-03-16T04:27:41;218.13;;;69.10;;
23310;SDS011;11828;51.508;18.118;2023-03-16T04:30:12;231.93;;;70.65;;
23310;SDS011;11828;51.508;18.118;2023-03-16T04:32:39;213.77;;;68.78;;
23310;SDS011;11828;51.508;18.118;2023-03-16T04:35:06;220.95;;;70.35;;
23310;SDS011;11828;51.508;18.118;2023-03-16T04:37:33;214.63;;;68.15;;
23310;SDS011;11828;51.508;18.118;2023-03-16T04:39:59;218.38;;;68.32;;
23310;SDS011;11828;51.508;18.118;2023-03-16T04:42:29;223.52;;;69.78;;
23310;SDS011;11828;51.508;18.118;2023-03-16T04:44:55;216.52;;;68.43;;
23310;SDS011;11828;51.508;18.118;2023-03-16T04:47:21;222.73;;;70.63;;
23310;SDS011;11828;51.508;18.118;2023-03-16T04:49:47;216.35;;;68.53;;
23310;SDS011;11828;51.508;18.118;2023-03-16T04:52:13;218.02;;;69.65;;
23310;SDS011;11828;51.508;18.118;2023-03-16T04:54:39;221.50;;;69.97;;
23310;SDS011;11828;51.508;18.118;2023-03-16T04:57:05;246.65;;;73.82;;
23310;SDS011;11828;51.508;18.118;2023-03-16T04:59:32;231.05;;;72.38;;
23310;SDS011;11828;51.508;18.118;2023-03-16T05:01:59;231.52;;;70.47;;
23310;SDS011;11828;51.508;18.118;2023-03-16T05:04:25;223.85;;;69.85;;
23310;SDS011;11828;51.508;18.118;2023-03-16T05:06:51;214.70;;;68.95;;
23310;SDS011;11828;51.508;18.118;2023-03-16T05:09:17;214.85;;;67.85;;
23310;SDS011;11828;51.508;18.118;2023-03-16T05:11:44;216.45;;;71.65;;
23310;SDS011;11828;51.508;18.118;2023-03-16T05:14:11;209.48;;;67.55;;
23310;SDS011;11828;51.508;18.118;2023-03-16T05:16:37;217.93;;;69.15;;
23310;SDS011;11828;51.508;18.118;2023-03-16T05:19:03;233.68;;;69.90;;
23310;SDS011;11828;51.508;18.118;2023-03-16T05:21:29;223.55;;;69.47;;
23310;SDS011;11828;51.508;18.118;2023-03-16T05:23:56;228.23;;;73.20;;
23310;SDS011;11828;51.508;18.118;2023-03-16T05:26:22;235.10;;;75.93;;
23310;SDS011;11828;51.508;18.118;2023-03-16T05:28:51;224.07;;;72.65;;
23310;SDS011;11828;51.508;18.118;2023-03-16T05:31:18;234.07;;;75.18;;
23310;SDS011;11828;51.508;18.118;2023-03-16T05:33:44;238.57;;;81.10;;
23310;SDS011;11828;51.508;18.118;2023-03-16T05:36:10;238.32;;;80.63;;
23310;SDS011;11828;51.508;18.118;2023-03-16T05:38:37;260.15;;;87.88;;
23310;SDS011;11828;51.508;18.118;2023-03-16T05:41:03;268.70;;;87.30;;
23310;SDS011;11828;51.508;18.118;2023-03-16T05:43:30;270.60;;;86.95;;
23310;SDS011;11828;51.508;18.118;2023-03-16T05:45:56;262.60;;;85.00;;
23310;SDS011;11828;51.508;18.118;2023-03-16T05:48:22;248.63;;;79.78;;
23310;SDS011;11828;51.508;18.118;2023-03-16T05:50:50;259.67;;;81.25;;
23310;SDS011;11828;51.508;18.118;2023-03-16T05:53:17;293.17;;;103.72;;
23310;SDS011;11828;51.508;18.118;2023-03-16T05:55:44;266.67;;;83.97;;
23310;SDS011;11828;51.508;18.118;2023-03-16T05:58:15;247.93;;;80.78;;
23310;SDS011;11828;51.508;18.118;2023-03-16T06:00:41;254.77;;;80.25;;
23310;SDS011;11828;51.508;18.118;2023-03-16T06:03:08;276.77;;;83.65;;
23310;SDS011;11828;51.508;18.118;2023-03-16T06:05:34;299.05;;;90.15;;
23310;SDS011;11828;51.508;18.118;2023-03-16T06:08:00;281.35;;;81.13;;
23310;SDS011;11828;51.508;18.118;2023-03-16T06:10:26;253.43;;;75.20;;
23310;SDS011;11828;51.508;18.118;2023-03-16T06:12:53;237.02;;;71.95;;
23310;SDS011;11828;51.508;18.118;2023-03-16T06:15:19;242.73;;;71.82;;
23310;SDS011;11828;51.508;18.118;2023-03-16T06:17:49;244.25;;;71.95;;
23310;SDS011;11828;51.508;18.118;2023-03-16T06:20:15;248.25;;;73.35;;
23310;SDS011;11828;51.508;18.118;2023-03-16T06:22:42;232.45;;;69.28;;
23310;SDS011;11828;51.508;18.118;2023-03-16T06:25:09;245.10;;;72.03;;
23310;SDS011;11828;51.508;18.118;2023-03-16T06:27:37;236.70;;;70.32;;
23310;SDS011;11828;51.508;18.118;2023-03-16T06:30:07;242.10;;;72.10;;
23310;SDS011;11828;51.508;18.118;2023-03-16T06:32:36;245.45;;;72.75;;
23310;SDS011;11828;51.508;18.118;2023-03-16T06:35:04;251.20;;;75.72;;
23310;SDS011;11828;51.508;18.118;2023-03-16T06:37:30;248.57;;;74.20;;
23310;SDS011;11828;51.508;18.118;2023-03-16T06:39:56;249.35;;;73.40;;
23310;SDS011;11828;51.508;18.118;2023-03-16T06:42:23;249.80;;;75.30;;
23310;SDS011;11828;51.508;18.118;2023-03-16T06:44:49;251.15;;;74.88;;
23310;SDS011;11828;51.508;18.118;2023-03-16T06:47:17;251.45;;;72.95;;
23310;SDS011;11828;51.508;18.118;2023-03-16T06:49:43;260.75;;;73.72;;
23310;SDS011;11828;51.508;18.118;2023-03-16T06:52:11;260.63;;;75.72;;
23310;SDS011;11828;51.508;18.118;2023-03-16T06:54:39;263.00;;;75.00;;
23310;SDS011;11828;51.508;18.118;2023-03-16T06:57:06;280.15;;;77.18;;
23310;SDS011;11828;51.508;18.118;2023-03-16T06:59:32;279.83;;;80.32;;
23310;SDS011;11828;51.508;18.118;2023-03-16T07:01:59;281.55;;;79.00;;
23310;SDS011;11828;51.508;18.118;2023-03-16T07:04:26;280.73;;;80.30;;
23310;SDS011;11828;51.508;18.118;2023-03-16T07:06:55;282.92;;;80.20;;
23310;SDS011;11828;51.508;18.118;2023-03-16T07:09:40;286.08;;;81.63;;
23310;SDS011;11828;51.508;18.118;2023-03-16T07:12:08;267.42;;;80.28;;
23310;SDS011;11828;51.508;18.118;2023-03-16T07:14:38;266.35;;;82.97;;
23310;SDS011;11828;51.508;18.118;2023-03-16T07:17:08;258.52;;;81.55;;
23310;SDS011;11828;51.508;18.118;2023-03-16T07:19:34;250.18;;;81.13;;
23310;SDS011;11828;51.508;18.118;2023-03-16T07:22:01;238.95;;;80.72;;
23310;SDS011;11828;51.508;18.118;2023-03-16T07:24:29;254.95;;;82.18;;
23310;SDS011;11828;51.508;18.118;2023-03-16T07:26:56;200.70;;;83.18;;
23310;SDS011;11828;51.508;18.118;2023-03-16T07:29:22;193.25;;;81.22;;
23310;SDS011;11828;51.508;18.118;2023-03-16T07:31:49;196.45;;;81.03;;
23310;SDS011;11828;51.508;18.118;2023-03-16T07:34:16;221.18;;;85.60;;
23310;SDS011;11828;51.508;18.118;2023-03-16T07:36:43;197.07;;;87.50;;
23310;SDS011;11828;51.508;18.118;2023-03-16T07:39:10;203.07;;;86.88;;
23310;SDS011;11828;51.508;18.118;2023-03-16T07:41:39;187.57;;;84.28;;
23310;SDS011;11828;51.508;18.118;2023-03-16T07:44:06;193.30;;;86.07;;
23310;SDS011;11828;51.508;18.118;2023-03-16T07:46:34;174.35;;;84.60;;
23310;SDS011;11828;51.508;18.118;2023-03-16T07:49:01;174.85;;;84.15;;
23310;SDS011;11828;51.508;18.118;2023-03-16T07:51:28;163.55;;;83.10;;
23310;SDS011;11828;51.508;18.118;2023-03-16T07:53:55;150.07;;;80.22;;
23310;SDS011;11828;51.508;18.118;2023-03-16T07:56:23;113.95;;;75.25;;
23310;SDS011;11828;51.508;18.118;2023-03-16T07:58:49;67.10;;;56.60;;
23310;SDS011;11828;51.508;18.118;2023-03-16T08:01:18;34.00;;;24.67;;
23310;SDS011;11828;51.508;18.118;2023-03-16T08:03:45;31.13;;;25.63;;
23310;SDS011;11828;51.508;18.118;2023-03-16T08:06:12;37.17;;;24.02;;
23310;SDS011;11828;51.508;18.118;2023-03-16T08:08:38;24.02;;;12.52;;
23310;SDS011;11828;51.508;18.118;2023-03-16T08:11:05;28.10;;;9.57;;
23310;SDS011;11828;51.508;18.118;2023-03-16T08:13:33;25.20;;;7.03;;
23310;SDS011;11828;51.508;18.118;2023-03-16T08:16:03;27.60;;;6.90;;
23310;SDS011;11828;51.508;18.118;2023-03-16T08:18:29;20.83;;;5.30;;
23310;SDS011;11828;51.508;18.118;2023-03-16T08:20:56;28.02;;;6.80;;
23310;SDS011;11828;51.508;18.118;2023-03-16T08:23:23;21.42;;;5.63;;
23310;SDS011;11828;51.508;18.118;2023-03-16T08:25:51;23.88;;;6.45;;
23310;SDS011;11828;51.508;18.118;2023-03-16T08:28:18;21.40;;;6.05;;
23310;SDS011;11828;51.508;18.118;2023-03-16T08:30:51;20.98;;;5.15;;
23310;SDS011;11828;51.508;18.118;2023-03-16T08:33:18;21.17;;;5.88;;
23310;SDS011;11828;51.508;18.118;2023-03-16T08:35:47;27.13;;;5.68;;
23310;SDS011;11828;51.508;18.118;2023-03-16T08:38:14;19.95;;;5.07;;
23310;SDS011;11828;51.508;18.118;2023-03-16T08:40:42;25.58;;;6.22;;
23310;SDS011;11828;51.508;18.118;2023-03-16T08:43:14;20.95;;;5.95;;
23310;SDS011;11828;51.508;18.118;2023-03-16T08:45:46;25.83;;;5.80;;
23310;SDS011;11828;51.508;18.118;2023-03-16T08:48:14;24.33;;;5.75;;
23310;SDS011;11828;51.508;18.118;2023-03-16T08:50:40;15.65;;;4.90;;
23310;SDS011;11828;51.508;18.118;2023-03-16T08:53:09;18.42;;;5.07;;
23310;SDS011;11828;51.508;18.118;2023-03-16T08:55:38;15.70;;;5.05;;
23310;SDS011;11828;51.508;18.118;2023-03-16T08:58:08;23.60;;;6.53;;
23310;SDS011;11828;51.508;18.118;2023-03-16T09:00:37;14.52;;;5.65;;
23310;SDS011;11828;51.508;18.118;2023-03-16T09:03:05;27.05;;;8.40;;
23310;SDS011;11828;51.508;18.118;2023-03-16T09:05:33;29.27;;;7.30;;
23310;SDS011;11828;51.508;18.118;2023-03-16T09:07:59;16.35;;;4.93;;
23310;SDS011;11828;51.508;18.118;2023-03-16T09:10:27;12.30;;;5.03;;
23310;SDS011;11828;51.508;18.118;2023-03-16T09:12:54;23.80;;;5.88;;
23310;SDS011;11828;51.508;18.118;2023-03-16T09:15:24;13.57;;;4.05;;
23310;SDS011;11828;51.508;18.118;2023-03-16T09:17:51;16.13;;;4.10;;
23310;SDS011;11828;51.508;18.118;2023-03-16T09:20:19;23.58;;;4.78;;
23310;SDS011;11828;51.508;18.118;2023-03-16T09:22:46;16.63;;;3.72;;
23310;SDS011;11828;51.508;18.118;2023-03-16T09:25:13;20.05;;;4.85;;
23310;SDS011;11828;51.508;18.118;2023-03-16T09:27:40;15.65;;;3.78;;
23310;SDS011;11828;51.508;18.118;2023-03-16T09:30:08;19.90;;;4.50;;
23310;SDS011;11828;51.508;18.118;2023-03-16T09:32:35;20.10;;;4.60;;
23310;SDS011;11828;51.508;18.118;2023-03-16T09:35:04;19.90;;;4.65;;
23310;SDS011;11828;51.508;18.118;2023-03-16T09:37:32;33.67;;;21.90;;
23310;SDS011;11828;51.508;18.118;2023-03-16T09:39:59;100.97;;;77.28;;
23310;SDS011;11828;51.508;18.118;2023-03-16T09:42:40;145.93;;;89.05;;
23310;SDS011;11828;51.508;18.118;2023-03-16T09:48:07;86.07;;;67.18;;
23310;SDS011;11828;51.508;18.118;2023-03-16T09:50:39;75.85;;;63.83;;
23310;SDS011;11828;51.508;18.118;2023-03-16T09:56:07;164.82;;;88.28;;
23310;SDS011;11828;51.508;18.118;2023-03-16T09:58:38;255.80;;;94.78;;
23310;SDS011;11828;51.508;18.118;2023-03-16T10:12:19;235.23;;;97.00;;
23310;SDS011;11828;51.508;18.118;2023-03-16T10:14:49;256.25;;;95.63;;
23310;SDS011;11828;51.508;18.118;2023-03-16T10:17:37;224.50;;;95.05;;
23310;SDS011;11828;51.508;18.118;2023-03-16T10:20:25;221.70;;;92.15;;
23310;SDS011;11828;51.508;18.118;2023-03-16T10:22:58;231.23;;;93.75;;
23310;SDS011;11828;51.508;18.118;2023-03-16T10:25:46;283.38;;;93.55;;
23310;SDS011;11828;51.508;18.118;2023-03-16T10:28:18;288.83;;;93.22;;
23310;SDS011;11828;51.508;18.118;2023-03-16T10:30:48;283.33;;;92.85;;
23310;SDS011;11828;51.508;18.118;2023-03-16T10:33:23;283.92;;;90.82;;
23310;SDS011;11828;51.508;18.118;2023-03-16T10:35:54;284.38;;;89.82;;
23310;SDS011;11828;51.508;18.118;2023-03-16T10:38:49;281.45;;;90.75;;
23310;SDS011;11828;51.508;18.118;2023-03-16T10:46:40;282.35;;;87.95;;
23310;SDS011;11828;51.508;18.118;2023-03-16T10:52:12;278.63;;;85.72;;
23310;SDS011;11828;51.508;18.118;2023-03-16T10:54:58;279.45;;;83.95;;
23310;SDS011;11828;51.508;18.118;2023-03-16T10:57:33;287.42;;;85.20;;
23310;SDS011;11828;51.508;18.118;2023-03-16T11:00:06;280.98;;;85.60;;
23310;SDS011;11828;51.508;18.118;2023-03-16T11:02:38;281.17;;;81.70;;
23310;SDS011;11828;51.508;18.118;2023-03-16T11:05:13;278.55;;;82.43;;
23310;SDS011;11828;51.508;18.118;2023-03-16T11:07:56;289.20;;;83.95;;
23310;SDS011;11828;51.508;18.118;2023-03-16T11:10:39;274.65;;;81.22;;
23310;SDS011;11828;51.508;18.118;2023-03-16T11:13:13;289.58;;;85.95;;
23310;SDS011;11828;51.508;18.118;2023-03-16T11:15:47;259.48;;;75.43;;
23310;SDS011;11828;51.508;18.118;2023-03-16T11:18:32;273.55;;;79.05;;
23310;SDS011;11828;51.508;18.118;2023-03-16T11:21:17;287.58;;;87.40;;
23310;SDS011;11828;51.508;18.118;2023-03-16T11:23:57;267.83;;;79.85;;
23310;SDS011;11828;51.508;18.118;2023-03-16T11:26:34;276.85;;;81.45;;
23310;SDS011;11828;51.508;18.118;2023-03-16T11:32:00;264.65;;;78.75;;
23310;SDS011;11828;51.508;18.118;2023-03-16T11:34:33;273.02;;;81.78;;
23310;SDS011;11828;51.508;18.118;2023-03-16T11:51:33;269.52;;;80.20;;
23310;SDS011;11828;51.508;18.118;2023-03-16T11:56:40;270.50;;;82.85;;
23310;SDS011;11828;51.508;18.118;2023-03-16T12:16:24;283.23;;;86.75;;
23310;SDS011;11828;51.508;18.118;2023-03-16T12:19:00;281.80;;;86.28;;
23310;SDS011;11828;51.508;18.118;2023-03-16T12:21:33;286.02;;;86.78;;
23310;SDS011;11828;51.508;18.118;2023-03-16T12:24:12;283.05;;;87.43;;
23310;SDS011;11828;51.508;18.118;2023-03-16T12:26:45;298.48;;;97.75;;
23310;SDS011;11828;51.508;18.118;2023-03-16T12:29:25;322.38;;;116.95;;
23310;SDS011;11828;51.508;18.118;2023-03-16T12:35:26;280.05;;;87.32;;
23310;SDS011;11828;51.508;18.118;2023-03-16T12:43:57;288.10;;;95.50;;
23310;SDS011;11828;51.508;18.118;2023-03-16T12:47:35;282.02;;;99.80;;
23310;SDS011;11828;51.508;18.118;2023-03-16T12:49:54;289.17;;;103.35;;
23310;SDS011;11828;51.508;18.118;2023-03-16T12:52:38;268.60;;;103.20;;
23310;SDS011;11828;51.508;18.118;2023-03-16T12:58:15;288.35;;;105.40;;
23310;SDS011;11828;51.508;18.118;2023-03-16T13:00:42;158.70;;;100.57;;
23310;SDS011;11828;51.508;18.118;2023-03-16T13:03:21;115.50;;;87.25;;
23310;SDS011;11828;51.508;18.118;2023-03-16T13:05:53;67.30;;;60.33;;
23310;SDS011;11828;51.508;18.118;2023-03-16T13:08:24;82.85;;;74.95;;
23310;SDS011;11828;51.508;18.118;2023-03-16T13:10:59;62.30;;;56.72;;
23310;SDS011;11828;51.508;18.118;2023-03-16T13:13:34;189.48;;;111.40;;
23310;SDS011;11828;51.508;18.118;2023-03-16T13:16:22;274.60;;;113.22;;
23310;SDS011;11828;51.508;18.118;2023-03-16T13:18:58;290.90;;;109.93;;
23310;SDS011;11828;51.508;18.118;2023-03-16T13:21:35;291.35;;;108.45;;
23310;SDS011;11828;51.508;18.118;2023-03-16T13:27:14;298.25;;;98.05;;
23310;SDS011;11828;51.508;18.118;2023-03-16T13:29:59;288.67;;;97.97;;
23310;SDS011;11828;51.508;18.118;2023-03-16T13:32:43;283.33;;;92.95;;
23310;SDS011;11828;51.508;18.118;2023-03-16T13:35:12;273.48;;;90.10;;
23310;SDS011;11828;51.508;18.118;2023-03-16T13:37:41;283.58;;;106.63;;
23310;SDS011;11828;51.508;18.118;2023-03-16T13:40:19;279.00;;;89.40;;
23310;SDS011;11828;51.508;18.118;2023-03-16T13:42:50;295.27;;;92.55;;
23310;SDS011;11828;51.508;18.118;2023-03-16T13:45:20;267.98;;;85.63;;
23310;SDS011;11828;51.508;18.118;2023-03-16T13:47:53;261.50;;;82.55;;
23310;SDS011;11828;51.508;18.118;2023-03-16T13:50:20;264.75;;;82.05;;
23310;SDS011;11828;51.508;18.118;2023-03-16T13:52:51;265.30;;;84.35;;
23310;SDS011;11828;51.508;18.118;2023-03-16T13:55:33;267.13;;;85.03;;
23310;SDS011;11828;51.508;18.118;2023-03-16T13:58:02;285.60;;;89.10;;
23310;SDS011;11828;51.508;18.118;2023-03-16T14:00:35;286.17;;;95.80;;
23310;SDS011;11828;51.508;18.118;2023-03-16T14:03:13;283.27;;;99.28;;
23310;SDS011;11828;51.508;18.118;2023-03-16T14:05:42;288.52;;;103.75;;
23310;SDS011;11828;51.508;18.118;2023-03-16T14:08:18;298.48;;;111.95;;
23310;SDS011;11828;51.508;18.118;2023-03-16T14:10:47;303.73;;;114.82;;
23310;SDS011;11828;51.508;18.118;2023-03-16T14:13:30;298.65;;;112.85;;
23310;SDS011;11828;51.508;18.118;2023-03-16T14:18:38;303.38;;;117.03;;
23310;SDS011;11828;51.508;18.118;2023-03-16T14:21:08;288.23;;;114.68;;
23310;SDS011;11828;51.508;18.118;2023-03-16T14:23:44;288.13;;;114.65;;
23310;SDS011;11828;51.508;18.118;2023-03-16T14:26:16;294.42;;;115.07;;
23310;SDS011;11828;51.508;18.118;2023-03-16T14:29:01;298.95;;;117.00;;
23310;SDS011;11828;51.508;18.118;2023-03-16T14:31:36;288.35;;;114.72;;
23310;SDS011;11828;51.508;18.118;2023-03-16T14:34:17;301.65;;;116.03;;
23310;SDS011;11828;51.508;18.118;2023-03-16T14:36:51;286.25;;;112.97;;
23310;SDS011;11828;51.508;18.118;2023-03-16T14:39:18;289.90;;;112.32;;
23310;SDS011;11828;51.508;18.118;2023-03-16T14:41:49;295.90;;;113.65;;
23310;SDS011;11828;51.508;18.118;2023-03-16T14:44:27;291.63;;;109.72;;
23310;SDS011;11828;51.508;18.118;2023-03-16T14:46:58;323.85;;;115.80;;
23310;SDS011;11828;51.508;18.118;2023-03-16T14:49:28;293.80;;;112.18;;
23310;SDS011;11828;51.508;18.118;2023-03-16T14:52:22;296.52;;;109.82;;
23310;SDS011;11828;51.508;18.118;2023-03-16T14:54:56;276.17;;;98.85;;
23310;SDS011;11828;51.508;18.118;2023-03-16T14:57:23;285.65;;;107.47;;
23310;SDS011;11828;51.508;18.118;2023-03-16T14:59:53;289.10;;;106.47;;
23310;SDS011;11828;51.508;18.118;2023-03-16T15:02:26;285.13;;;108.10;;
23310;SDS011;11828;51.508;18.118;2023-03-16T15:04:56;280.88;;;106.72;;
23310;SDS011;11828;51.508;18.118;2023-03-16T15:07:25;278.73;;;103.25;;
23310;SDS011;11828;51.508;18.118;2023-03-16T15:10:40;279.77;;;101.85;;
23310;SDS011;11828;51.508;18.118;2023-03-16T15:12:51;296.83;;;107.75;;
23310;SDS011;11828;51.508;18.118;2023-03-16T15:15:29;297.75;;;107.88;;
23310;SDS011;11828;51.508;18.118;2023-03-16T15:17:55;272.30;;;99.15;;
23310;SDS011;11828;51.508;18.118;2023-03-16T15:20:24;269.20;;;97.63;;
23310;SDS011;11828;51.508;18.118;2023-03-16T15:22:55;285.67;;;100.50;;
23310;SDS011;11828;51.508;18.118;2023-03-16T15:25:24;284.95;;;103.05;;
23310;SDS011;11828;51.508;18.118;2023-03-16T15:27:59;306.17;;;104.97;;
23310;SDS011;11828;51.508;18.118;2023-03-16T15:30:36;272.40;;;99.28;;
23310;SDS011;11828;51.508;18.118;2023-03-16T15:33:03;293.70;;;99.82;;
23310;SDS011;11828;51.508;18.118;2023-03-16T15:35:30;299.27;;;101.60;;
23310;SDS011;11828;51.508;18.118;2023-03-16T15:37:56;284.02;;;94.47;;
23310;SDS011;11828;51.508;18.118;2023-03-16T15:40:26;290.83;;;92.40;;
23310;SDS011;11828;51.508;18.118;2023-03-16T15:42:53;277.65;;;87.40;;
23310;SDS011;11828;51.508;18.118;2023-03-16T15:45:20;303.67;;;103.00;;